Etusivu
METAR-TAF:

METAR-TAF

Lentoasemat :

Pariisi-Charles de Gaulle, Ranska

Charles de Gaullen kansainvälinen lentoasema

Leveyspiiri: 49-01N, Pituuspiiri: 002-32E, korkeus merenpinnasta: 118 m

Tämänhetkinen sää

Tämä raportti tehtiin 21 minuuttia sitten, kello 07.00 UTC
Tuuli 11 kn idästä
Lämpötila 19°C
Kosteus 60%
Ilmanpaine 1019 hPa
Näkyvyys 10 km tai enemmän
ei pilviä alle 1500 m:ssä eikä cumulonimbus-pilviä

METAR: LFPG 260700Z 10011KT CAVOK 19/11 Q1019 NOSIG

Aika: 09:21 (07:21 UTC)

Sääennuste

Tämä raportti tehtiin 2 tuntia ja 21 minuuttia sitten, kello 05.00 UTC
Ennuste voimassa 26. päivästä klo 06 UTC - 27. päivään klo 12 UTC
Tuuli 10 kn idästä
Näkyvyys 10 km tai enemmän
ei pilviä alle 1500 m:ssä eikä cumulonimbus-pilviä
Tulossa
27. päivästä klo 07 UTC - 27. päivään klo 09 UTC
Tuuli 10 kn etelästä

TAF: LFPG 260500Z 2606/2712 08010KT CAVOK BECMG 2707/2709 17010KT TX28/2615Z TN17/2606Z

Säähavainnot ja -ennusteet yli 4000 lentoasemalta (METAR- ja TAF-raportit).

Käytössä olevat sääasemat on merkitty karttaan keltaisilla ja punaisilla pisteillä.

Aseta hiiri pisteen päälle nähdäksesi sääaseman nimen.

Klikkaa sitten nähdäksesi säähavainnot ja -ennusteet.

Kartan vaihtaminen: klikkaa mustalla rastilla varustettuja vihreitä pisteitä, niin voit zoomata sisään; viivalla varustettua vihreää pistettä, niin voit zoomata ulos tai vihreitä nuolia, niin pääset viereisille kartoille.


METAR-TAF: